createdAt,value
2022-09-10T00:00:10.293Z,658.65
2022-09-10T00:02:39.316Z,652.53
2022-09-10T00:05:10.053Z,650.45
2022-09-10T00:07:38.810Z,654.58
2022-09-10T00:10:06.857Z,643.30
2022-09-10T00:12:35.945Z,653.30
2022-09-10T00:15:06.402Z,649.78
2022-09-10T00:17:36.898Z,652.65
2022-09-10T00:20:05.882Z,660.35
2022-09-10T00:22:34.426Z,649.08
2022-09-10T00:25:06.256Z,648.97
2022-09-10T00:27:37.203Z,654.13
2022-09-10T00:30:05.827Z,654.67
2022-09-10T00:32:35.521Z,658.78
2022-09-10T00:35:03.536Z,656.13
2022-09-10T00:37:31.521Z,655.78
2022-09-10T00:39:59.624Z,651.88
2022-09-10T00:42:27.723Z,644.90
2022-09-10T00:45:04.686Z,652.60
2022-09-10T00:47:36.708Z,652.42
2022-09-10T00:50:08.812Z,663.08
2022-09-10T00:52:39.911Z,645.45
2022-09-10T00:55:09.118Z,646.45
2022-09-10T00:57:37.060Z,655.97
2022-09-10T01:00:11.777Z,649.92
2022-09-10T01:02:41.293Z,647.70
2022-09-10T01:05:10.554Z,653.85
2022-09-10T01:07:39.209Z,655.28
2022-09-10T01:10:09.822Z,655.17
2022-09-10T01:12:54.792Z,650.72
2022-09-10T01:15:27.913Z,654.05
2022-09-10T01:18:09.377Z,652.95
2022-09-10T01:20:51.213Z,664.40
2022-09-10T01:23:50.912Z,663.40
2022-09-10T01:26:29.336Z,657.38
2022-09-10T01:29:02.410Z,649.30
2022-09-10T01:31:33.713Z,649.40
2022-09-10T01:34:05.793Z,657.15
2022-09-10T01:36:36.696Z,654.50
2022-09-10T01:39:04.642Z,653.38
2022-09-10T01:41:32.617Z,652.72
2022-09-10T01:44:10.380Z,658.38
2022-09-10T01:46:46.712Z,647.28
2022-09-10T01:49:23.410Z,655.00
2022-09-10T01:52:04.287Z,654.67
2022-09-10T01:54:40.983Z,660.72
2022-09-10T01:57:19.570Z,655.65
2022-09-10T01:59:54.413Z,653.08
2022-09-10T02:02:23.881Z,648.75
2022-09-10T02:04:52.954Z,648.00
2022-09-10T02:07:23.922Z,649.92
2022-09-10T02:09:52.566Z,652.22
2022-09-10T02:12:21.661Z,649.63
2022-09-10T02:14:51.300Z,652.00
2022-09-10T02:17:20.268Z,650.60
2022-09-10T02:19:49.158Z,655.53
2022-09-10T02:22:17.465Z,643.97
2022-09-10T02:24:45.506Z,643.40
2022-09-10T02:27:13.822Z,652.40
2022-09-10T02:29:42.321Z,649.40
2022-09-10T02:32:11.572Z,654.40
2022-09-10T02:34:41.083Z,648.97
2022-09-10T02:37:09.224Z,645.72
2022-09-10T02:39:37.200Z,651.03
2022-09-10T02:42:05.543Z,648.13
2022-09-10T02:44:33.411Z,652.00
2022-09-10T02:47:01.317Z,652.55
2022-09-10T02:49:31.734Z,646.78
2022-09-10T02:51:59.545Z,651.88
2022-09-10T02:54:27.362Z,648.42
2022-09-10T02:56:56.970Z,653.88
2022-09-10T02:59:25.101Z,649.25
2022-09-10T03:01:54.543Z,652.28
2022-09-10T03:04:22.349Z,658.88
2022-09-10T03:06:52.130Z,655.75
2022-09-10T03:09:20.297Z,650.40
2022-09-10T03:11:48.105Z,658.50
2022-09-10T03:14:20.265Z,649.88
2022-09-10T03:16:48.666Z,626.63
2022-09-10T03:19:17.491Z,630.83
2022-09-10T03:21:47.597Z,636.65
2022-09-10T03:24:17.167Z,655.05
2022-09-10T03:26:44.977Z,650.22
2022-09-10T03:29:13.361Z,646.88
2022-09-10T03:31:42.756Z,653.92
2022-09-10T03:34:12.585Z,653.15
2022-09-10T03:36:41.037Z,654.92
2022-09-10T03:39:08.924Z,653.83
2022-09-10T03:41:38.209Z,651.92
2022-09-10T03:44:06.455Z,656.10
2022-09-10T03:46:34.679Z,642.47
2022-09-10T03:49:02.679Z,647.67
2022-09-10T03:51:31.161Z,656.40
2022-09-10T03:54:00.387Z,648.15
2022-09-10T03:56:28.813Z,648.28
2022-09-10T03:58:58.182Z,643.47
2022-09-10T04:01:26.453Z,656.28
2022-09-10T04:03:56.945Z,655.17
2022-09-10T04:06:25.063Z,654.25
2022-09-10T04:08:54.039Z,653.35
2022-09-10T04:11:24.093Z,641.53
2022-09-10T04:13:52.903Z,639.92
2022-09-10T04:16:23.473Z,658.88
2022-09-10T04:18:51.671Z,641.17
2022-09-10T04:21:20.321Z,648.15
2022-09-10T04:23:48.109Z,636.85
2022-09-10T04:26:17.635Z,632.38
2022-09-10T04:28:45.877Z,628.80
2022-09-10T04:31:13.838Z,636.55
2022-09-10T04:33:43.069Z,638.90
2022-09-10T04:36:11.204Z,631.30
2022-09-10T04:38:40.632Z,626.38
2022-09-10T04:41:09.499Z,635.95
2022-09-10T04:43:38.052Z,643.05
2022-09-10T04:46:06.302Z,650.00
2022-09-10T04:48:34.445Z,636.75
2022-09-10T04:51:16.208Z,628.92
2022-09-10T04:53:45.392Z,641.83
2022-09-10T04:56:13.622Z,645.60
2022-09-10T04:58:42.476Z,649.08
2022-09-10T05:01:10.862Z,646.75
2022-09-10T05:03:39.157Z,651.55
2022-09-10T05:06:08.728Z,655.78
2022-09-10T05:08:36.949Z,645.55
2022-09-10T05:11:05.342Z,655.20
2022-09-10T05:13:33.665Z,652.30
2022-09-10T05:16:01.701Z,657.95
2022-09-10T05:18:30.133Z,644.78
2022-09-10T05:20:58.191Z,643.90
2022-09-10T05:23:27.469Z,642.95
2022-09-10T05:25:56.868Z,635.35
2022-09-10T05:28:24.882Z,638.38
2022-09-10T05:30:52.731Z,639.97
2022-09-10T05:33:20.569Z,648.55
2022-09-10T05:35:51.929Z,628.22
2022-09-10T05:38:20.281Z,635.33
2022-09-10T05:40:50.437Z,627.75
2022-09-10T05:43:18.332Z,638.33
2022-09-10T05:45:47.200Z,643.83
2022-09-10T05:48:15.091Z,639.30
2022-09-10T05:50:45.509Z,636.38
2022-09-10T05:53:13.731Z,648.88
2022-09-10T05:55:41.546Z,620.58
2022-09-10T05:58:10.899Z,638.38
2022-09-10T06:00:38.880Z,626.45
2022-09-10T06:03:07.938Z,630.05
2022-09-10T06:05:35.961Z,632.78
2022-09-10T06:08:08.503Z,632.72
2022-09-10T06:10:37.041Z,625.97
2022-09-10T06:13:05.078Z,632.30
2022-09-10T06:15:35.739Z,648.47
2022-09-10T06:49:24.790Z,547.45
2022-09-10T06:51:53.460Z,667.30
2022-09-10T06:54:21.600Z,676.75
2022-09-10T06:56:50.064Z,668.05
2022-09-10T06:59:18.434Z,647.80
2022-09-10T07:01:47.464Z,647.28
2022-09-10T07:04:15.588Z,652.45
2022-09-10T07:06:47.782Z,654.28
2022-09-10T07:09:18.911Z,641.17
2022-09-10T07:11:46.955Z,664.45
2022-09-10T07:14:15.264Z,650.15
2022-09-10T07:16:45.700Z,669.70
2022-09-10T07:19:15.185Z,670.90
2022-09-10T07:21:44.949Z,678.45
2022-09-10T07:24:16.094Z,668.83
2022-09-10T07:26:46.667Z,669.63
2022-09-10T07:29:14.765Z,674.53
2022-09-10T07:31:45.686Z,680.13
2022-09-10T07:34:16.477Z,679.45
2022-09-10T07:36:45.906Z,673.78
2022-09-10T07:39:13.887Z,681.65
2022-09-10T07:41:41.884Z,686.92
2022-09-10T07:44:09.745Z,695.90
2022-09-10T07:46:38.033Z,683.70
2022-09-10T07:49:05.835Z,677.55
2022-09-10T07:51:35.355Z,678.55
2022-09-10T07:54:05.330Z,674.33
2022-09-10T07:56:34.339Z,674.45
2022-09-10T07:59:02.755Z,685.22
2022-09-10T08:01:31.847Z,679.70
2022-09-10T08:04:00.086Z,676.92
2022-09-10T08:06:28.048Z,671.08
2022-09-10T08:08:56.204Z,683.55
2022-09-10T08:11:25.896Z,671.95
2022-09-10T08:13:56.824Z,684.80
2022-09-10T08:16:26.867Z,693.50
2022-09-10T08:18:57.283Z,670.72
2022-09-10T08:21:25.911Z,655.28
2022-09-10T08:23:55.317Z,668.33
2022-09-10T08:26:25.556Z,676.13
2022-09-10T08:28:54.040Z,665.17
2022-09-10T08:31:22.189Z,678.95
2022-09-10T08:33:51.269Z,685.35
2022-09-10T08:36:21.785Z,665.55
2022-09-10T08:38:50.479Z,666.97
2022-09-10T08:41:32.523Z,667.95
2022-09-10T08:44:48.593Z,683.42
2022-09-10T08:47:07.370Z,691.08
2022-09-10T08:49:38.198Z,670.83
2022-09-10T08:52:13.400Z,669.28
2022-09-10T08:54:43.905Z,680.17
2022-09-10T08:57:17.541Z,674.28
2022-09-10T08:59:46.601Z,671.50
2022-09-10T09:02:38.121Z,672.70
2022-09-10T09:05:14.297Z,687.20
2022-09-10T09:07:42.693Z,725.15
2022-09-10T09:10:23.992Z,677.10
2022-09-10T09:13:17.244Z,677.63
2022-09-10T09:15:51.758Z,682.92
2022-09-10T09:18:30.296Z,683.70
2022-09-10T09:21:00.714Z,685.28
2022-09-10T09:23:34.043Z,676.80
2022-09-10T09:26:05.140Z,675.70
2022-09-10T09:28:39.588Z,678.45
2022-09-10T09:31:17.953Z,682.05
2022-09-10T09:33:46.754Z,673.70
2022-09-10T09:36:18.072Z,681.80
2022-09-10T09:38:50.915Z,685.85
2022-09-10T09:41:23.036Z,691.10
2022-09-10T09:43:56.103Z,700.15
2022-09-10T09:46:25.731Z,691.78
2022-09-10T09:48:59.507Z,691.65
2022-09-10T09:51:30.697Z,686.08
2022-09-10T09:54:39.256Z,684.75
2022-09-10T09:56:59.139Z,686.63
2022-09-10T09:59:30.420Z,689.72
2022-09-10T10:02:01.012Z,690.05
2022-09-10T10:04:31.056Z,686.53
2022-09-10T10:07:00.866Z,690.83
2022-09-10T10:09:30.246Z,696.97
2022-09-10T10:11:59.423Z,688.17
2022-09-10T10:14:41.635Z,690.50
2022-09-10T10:17:43.561Z,691.45
2022-09-10T10:20:14.071Z,690.15
2022-09-10T10:22:43.473Z,694.38
2022-09-10T10:25:38.395Z,693.67
2022-09-10T10:28:15.843Z,698.42
2022-09-10T10:30:45.412Z,672.35
2022-09-10T10:33:19.315Z,666.70
2022-09-10T10:35:49.393Z,690.35
2022-09-10T10:38:31.730Z,681.88
2022-09-10T10:41:32.215Z,693.22
2022-09-10T10:44:24.126Z,697.42
2022-09-10T10:47:05.811Z,691.42
2022-09-10T10:49:47.649Z,693.60
2022-09-10T10:52:19.957Z,689.05
2022-09-10T10:54:59.799Z,686.97
2022-09-10T10:57:32.417Z,685.70
2022-09-10T11:00:03.996Z,694.00
2022-09-10T11:02:50.619Z,691.30
2022-09-10T11:05:21.961Z,690.33
2022-09-10T11:07:50.319Z,754.28
2022-09-10T11:10:23.474Z,693.00
2022-09-10T11:12:55.844Z,692.10
2022-09-10T11:15:30.360Z,682.60
2022-09-10T11:18:04.944Z,701.75
2022-09-10T11:20:34.871Z,680.40
2022-09-10T11:23:09.486Z,689.85
2022-09-10T11:25:40.737Z,684.95
2022-09-10T11:28:13.407Z,683.28
2022-09-10T11:30:42.758Z,670.55
2022-09-10T11:33:16.795Z,686.13
2022-09-10T11:35:47.125Z,685.20
2022-09-10T11:38:23.181Z,682.85
2022-09-10T11:40:56.358Z,689.90
2022-09-10T11:43:29.834Z,689.33
2022-09-10T11:45:59.650Z,695.78
2022-09-10T11:48:32.651Z,689.55
2022-09-10T11:51:03.526Z,682.70
2022-09-10T11:53:31.790Z,667.33
2022-09-10T11:56:13.944Z,679.28
2022-09-10T11:58:49.076Z,694.70
2022-09-10T12:01:25.921Z,677.22
2022-09-10T12:04:23.304Z,688.72
2022-09-10T12:07:03.407Z,685.42
2022-09-10T12:09:37.787Z,671.22
2022-09-10T12:12:10.829Z,669.38
2022-09-10T12:14:40.580Z,659.33
2022-09-10T12:17:14.324Z,657.88
2022-09-10T12:19:47.070Z,664.10
2022-09-10T12:22:21.161Z,662.40
2022-09-10T12:24:54.703Z,654.00
2022-09-10T12:27:23.095Z,652.25
2022-09-10T12:29:51.131Z,668.65
2022-09-10T12:32:36.844Z,654.13
2022-09-10T12:35:47.025Z,658.13
2022-09-10T12:38:51.920Z,661.50
2022-09-10T12:41:57.953Z,676.72
2022-09-10T12:44:34.444Z,673.67
2022-09-10T12:47:53.937Z,674.67
2022-09-10T12:50:35.102Z,679.47
2022-09-10T12:53:34.413Z,684.10
2022-09-10T12:56:16.267Z,682.50
2022-09-10T12:58:55.846Z,675.65
2022-09-10T13:01:36.813Z,678.33
2022-09-10T13:04:04.881Z,680.63
2022-09-10T13:06:38.290Z,673.40
2022-09-10T13:09:18.048Z,687.13
2022-09-10T13:11:49.557Z,686.85
2022-09-10T13:14:20.850Z,677.20
2022-09-10T13:16:48.988Z,677.60
2022-09-10T13:19:48.877Z,673.50
2022-09-10T13:23:04.245Z,668.10
2022-09-10T13:25:36.693Z,660.05
2022-09-10T13:28:45.100Z,663.55
2022-09-10T13:31:18.412Z,653.85
2022-09-10T13:34:09.402Z,659.08
2022-09-10T13:36:42.426Z,651.78
2022-09-10T13:39:28.932Z,640.83
2022-09-10T13:42:18.696Z,662.80
2022-09-10T13:44:59.811Z,645.40
2022-09-10T13:47:37.633Z,663.10
2022-09-10T13:50:13.340Z,676.75
2022-09-10T13:52:45.229Z,658.08
2022-09-10T13:55:19.819Z,659.00
2022-09-10T13:57:49.760Z,667.42
2022-09-10T14:00:23.786Z,680.50
2022-09-10T14:02:54.964Z,679.60
2022-09-10T14:05:25.987Z,676.92
2022-09-10T14:07:55.023Z,677.03
2022-09-10T14:10:23.104Z,662.97
2022-09-10T14:12:51.871Z,660.05
2022-09-10T14:15:25.331Z,634.13
2022-09-10T14:17:58.577Z,642.88
2022-09-10T14:20:27.877Z,633.35
2022-09-10T14:23:00.207Z,633.22
2022-09-10T14:25:33.480Z,625.30
2022-09-10T14:28:28.601Z,647.10
2022-09-10T14:31:20.550Z,644.33
2022-09-10T14:33:50.142Z,638.60
2022-09-10T14:36:19.699Z,629.13
2022-09-10T14:38:55.734Z,611.78
2022-09-10T14:41:25.985Z,610.00
2022-09-10T14:44:15.751Z,633.10
2022-09-10T14:46:50.237Z,620.05
2022-09-10T14:49:20.384Z,629.67
2022-09-10T14:51:48.498Z,629.53
2022-09-10T14:54:16.357Z,636.70
2022-09-10T14:56:46.409Z,658.30
2022-09-10T14:59:16.909Z,652.58
2022-09-10T15:01:48.288Z,656.30
2022-09-10T15:04:17.500Z,657.03
2022-09-10T15:06:46.801Z,663.22
2022-09-10T15:09:15.028Z,668.63
2022-09-10T15:11:50.984Z,677.42
2022-09-10T15:14:20.077Z,674.67
2022-09-10T15:16:51.759Z,672.35
2022-09-10T15:19:19.832Z,661.78
2022-09-10T15:21:49.528Z,662.00
2022-09-10T15:24:18.825Z,676.03
2022-09-10T15:26:47.002Z,673.75
2022-09-10T15:29:15.828Z,667.63
2022-09-10T15:31:44.748Z,674.45
2022-09-10T15:34:13.008Z,676.55
2022-09-10T15:36:42.015Z,678.47
2022-09-10T15:39:13.273Z,667.42
2022-09-10T15:41:44.734Z,670.80
2022-09-10T15:44:13.190Z,674.05
2022-09-10T15:46:42.534Z,674.10
2022-09-10T15:49:12.618Z,676.97
2022-09-10T15:51:41.409Z,671.78
2022-09-10T15:54:12.175Z,675.58
2022-09-10T15:56:40.799Z,679.25
2022-09-10T15:59:10.321Z,689.35
2022-09-10T16:01:39.027Z,695.25
2022-09-10T16:04:07.380Z,692.90
2022-09-10T16:06:37.745Z,669.90
2022-09-10T16:09:09.224Z,672.70
2022-09-10T16:11:40.068Z,673.10
2022-09-10T16:14:09.862Z,677.08
2022-09-10T16:16:37.719Z,677.03
2022-09-10T16:19:05.787Z,665.10
2022-09-10T16:21:36.261Z,662.55
2022-09-10T16:24:05.260Z,666.95
2022-09-10T16:26:34.576Z,648.53
2022-09-10T16:29:06.389Z,654.60
2022-09-10T16:31:36.363Z,654.47
2022-09-10T16:34:05.913Z,653.33
2022-09-10T16:36:34.673Z,652.17
2022-09-10T16:39:02.961Z,650.35
2022-09-10T16:41:31.832Z,662.30
2022-09-10T16:44:00.549Z,648.25
2022-09-10T16:46:30.333Z,657.58
2022-09-10T16:48:59.505Z,660.30
2022-09-10T16:51:29.136Z,663.17
2022-09-10T16:54:02.482Z,665.30
2022-09-10T16:56:33.605Z,660.65
2022-09-10T16:59:01.625Z,666.53
2022-09-10T17:01:31.266Z,668.47
2022-09-10T17:03:59.330Z,673.08
2022-09-10T17:06:29.292Z,669.83
2022-09-10T17:08:58.771Z,671.63
2022-09-10T17:11:27.706Z,647.15
2022-09-10T17:13:56.936Z,649.95
2022-09-10T17:16:26.377Z,662.05
2022-09-10T17:18:59.961Z,637.83
2022-09-10T17:21:29.073Z,646.67
2022-09-10T17:23:57.604Z,662.13
2022-09-10T17:26:27.040Z,641.15
2022-09-10T17:28:56.065Z,645.80
2022-09-10T17:31:24.573Z,623.00
2022-09-10T17:33:52.777Z,662.78
2022-09-10T17:36:22.216Z,633.83
2022-09-10T17:38:50.513Z,637.10
2022-09-10T17:41:18.331Z,632.33
2022-09-10T17:43:47.204Z,651.17
2022-09-10T17:46:17.776Z,668.90
2022-09-10T17:48:45.805Z,652.90
2022-09-10T17:51:15.326Z,664.80
2022-09-10T17:53:44.938Z,657.13
2022-09-10T17:56:14.666Z,657.28
2022-09-10T17:58:43.117Z,660.47
2022-09-10T18:01:13.895Z,655.03
2022-09-10T18:03:42.838Z,660.65
2022-09-10T18:06:11.921Z,672.42
2022-09-10T18:08:41.662Z,668.38
2022-09-10T18:11:13.142Z,647.70
2022-09-10T18:13:41.277Z,642.55
2022-09-10T18:16:12.429Z,652.63
2022-09-10T18:18:40.445Z,636.92
2022-09-10T18:21:13.021Z,648.08
2022-09-10T18:23:41.667Z,664.53
2022-09-10T18:26:17.964Z,650.47
2022-09-10T18:28:46.661Z,640.15
2022-09-10T18:31:14.663Z,650.00
2022-09-10T18:33:42.565Z,655.65
2022-09-10T18:36:15.092Z,648.25
2022-09-10T18:38:43.706Z,653.17
2022-09-10T18:41:20.880Z,650.90
2022-09-10T18:43:49.465Z,653.05
2022-09-10T18:46:17.834Z,644.03
2022-09-10T18:48:46.700Z,649.40
2022-09-10T18:51:15.859Z,655.60
2022-09-10T18:53:45.298Z,671.75
2022-09-10T18:56:15.506Z,659.22
2022-09-10T18:58:49.516Z,654.65
2022-09-10T19:01:17.776Z,673.17
2022-09-10T19:03:49.999Z,684.00
2022-09-10T19:06:23.059Z,667.42
2022-09-10T19:08:53.219Z,660.40
2022-09-10T19:11:24.464Z,666.45
2022-09-10T19:13:55.033Z,647.65
2022-09-10T19:16:25.007Z,660.53
2022-09-10T19:18:53.566Z,636.55
2022-09-10T19:21:22.303Z,637.03
2022-09-10T19:23:53.416Z,622.03
2022-09-10T19:26:25.885Z,653.63
2022-09-10T19:28:57.371Z,663.20
2022-09-10T19:31:26.155Z,662.38
2022-09-10T19:33:56.550Z,662.13
2022-09-10T19:36:27.462Z,660.78
2022-09-10T19:38:55.710Z,644.75
2022-09-10T19:41:25.560Z,634.20
2022-09-10T19:43:57.484Z,641.97
2022-09-10T19:46:28.406Z,663.08
2022-09-10T19:48:58.353Z,674.55
2022-09-10T19:51:30.021Z,664.97
2022-09-10T19:53:58.225Z,652.50
2022-09-10T19:56:28.149Z,660.45
2022-09-10T19:58:57.916Z,652.28
2022-09-10T20:01:27.427Z,660.30
2022-09-10T20:03:59.263Z,645.78
2022-09-10T20:06:27.249Z,648.72
2022-09-10T20:08:55.636Z,669.03
2022-09-10T20:11:24.949Z,665.78
2022-09-10T20:13:56.040Z,662.85
2022-09-10T20:16:26.199Z,655.03
2022-09-10T20:18:54.241Z,649.92
2022-09-10T20:21:24.832Z,653.45
2022-09-10T20:23:55.648Z,660.45
2022-09-10T20:26:25.642Z,638.72
2022-09-10T20:28:54.669Z,650.72
2022-09-10T20:31:23.514Z,651.58
2022-09-10T20:33:55.513Z,655.63
2022-09-10T20:36:24.541Z,640.63
2022-09-10T20:38:53.272Z,656.03
2022-09-10T20:41:21.368Z,658.85
2022-09-10T20:43:51.724Z,662.70
2022-09-10T20:46:22.135Z,648.83
2022-09-10T20:48:52.490Z,657.55
2022-09-10T20:51:21.025Z,663.83
2022-09-10T20:53:49.718Z,678.28
2022-09-10T20:56:19.400Z,669.13
2022-09-10T20:58:47.946Z,652.60
2022-09-10T21:01:18.952Z,665.17
2022-09-10T21:03:48.167Z,647.92
2022-09-10T21:06:19.704Z,657.03
2022-09-10T21:08:49.296Z,658.17
2022-09-10T21:11:18.787Z,657.50
2022-09-10T21:13:49.773Z,645.97
2022-09-10T21:16:18.944Z,659.85
2022-09-10T21:18:52.209Z,662.40
2022-09-10T21:21:25.710Z,624.00
2022-09-10T21:23:55.065Z,640.05
2022-09-10T21:26:25.161Z,636.22
2022-09-10T21:28:53.852Z,633.28
2022-09-10T21:31:21.696Z,638.78
2022-09-10T21:33:50.110Z,638.25
2022-09-10T21:36:20.016Z,619.80
2022-09-10T21:38:50.127Z,622.50
2022-09-10T21:41:21.442Z,634.45
2022-09-10T21:43:49.314Z,626.35
2022-09-10T21:46:17.150Z,623.03
2022-09-10T21:48:45.125Z,636.00
2022-09-10T21:51:14.491Z,636.45
2022-09-10T21:53:43.294Z,640.30
2022-09-10T21:56:13.581Z,650.72
2022-09-10T21:58:41.960Z,640.25
2022-09-10T22:01:11.205Z,651.78
2022-09-10T22:03:48.168Z,655.47
2022-09-10T22:06:18.721Z,627.17
2022-09-10T22:08:48.188Z,656.13
2022-09-10T22:11:21.548Z,650.42
2022-09-10T22:13:52.928Z,645.92
2022-09-10T22:16:21.638Z,655.33
2022-09-10T22:18:49.886Z,639.35
2022-09-10T22:21:18.621Z,640.65
2022-09-10T22:23:46.452Z,651.20
2022-09-10T22:26:18.036Z,640.08
2022-09-10T22:28:46.280Z,650.75
2022-09-10T22:31:16.397Z,654.25
2022-09-10T22:33:45.692Z,660.75
2022-09-10T22:36:15.229Z,666.60
2022-09-10T22:38:44.156Z,657.42
2022-09-10T22:41:14.488Z,653.40
2022-09-10T22:43:44.025Z,660.70
2022-09-10T22:46:12.759Z,658.97
2022-09-10T22:48:43.876Z,660.90
2022-09-10T22:51:14.577Z,654.17
2022-09-10T22:53:44.835Z,658.05
2022-09-10T22:56:14.371Z,661.28
2022-09-10T22:58:44.493Z,669.38
2022-09-10T23:01:14.637Z,672.17
2022-09-10T23:03:44.398Z,674.78
2022-09-10T23:06:14.864Z,649.22
2022-09-10T23:08:44.280Z,661.20
2022-09-10T23:11:15.297Z,666.42
2022-09-10T23:13:45.165Z,670.88
2022-09-10T23:16:14.702Z,670.40
2022-09-10T23:18:43.405Z,653.45
2022-09-10T23:21:11.944Z,665.60
2022-09-10T23:23:39.784Z,672.47
2022-09-10T23:26:09.383Z,661.08
2022-09-10T23:28:37.831Z,660.22
2022-09-10T23:31:13.493Z,655.65
2022-09-10T23:33:42.581Z,673.03
2022-09-10T23:36:13.574Z,665.10
2022-09-10T23:38:44.386Z,661.90
2022-09-10T23:41:16.222Z,656.72
2022-09-10T23:43:46.520Z,670.83
2022-09-10T23:46:17.247Z,656.88
2022-09-10T23:48:46.801Z,646.30
2022-09-10T23:51:19.415Z,645.03
2022-09-10T23:53:49.271Z,641.20
2022-09-10T23:56:19.762Z,646.85
2022-09-10T23:58:48.956Z,647.20
